sensor_id;sensor_type;location;lat;lon;timestamp;temperature;humidity
8172;DHT22;4127;47.908;10.850;2022-12-18T04:24:36;-5.90;99.90
8172;DHT22;4127;47.908;10.850;2022-12-18T04:27:14;-6.00;99.90
8172;DHT22;4127;47.908;10.850;2022-12-18T04:30:00;-6.10;99.90
8172;DHT22;4127;47.908;10.850;2022-12-18T04:32:55;-6.00;99.90
8172;DHT22;4127;47.908;10.850;2022-12-18T04:35:50;-5.80;99.90
8172;DHT22;4127;47.908;10.850;2022-12-18T04:39:01;-5.50;99.90
8172;DHT22;4127;47.908;10.850;2022-12-18T04:41:45;-5.40;99.90
8172;DHT22;4127;47.908;10.850;2022-12-18T04:44:21;-5.30;99.90
8172;DHT22;4127;47.908;10.850;2022-12-18T04:47:08;-5.20;99.90
8172;DHT22;4127;47.908;10.850;2022-12-18T04:49:57;-5.10;99.90
8172;DHT22;4127;47.908;10.850;2022-12-18T04:54:00;-5.20;99.90
8172;DHT22;4127;47.908;10.850;2022-12-18T04:56:27;-5.60;99.90
8172;DHT22;4127;47.908;10.850;2022-12-18T04:58:54;-5.90;99.90
8172;DHT22;4127;47.908;10.850;2022-12-18T05:01:24;-5.90;99.90
8172;DHT22;4127;47.908;10.850;2022-12-18T05:04:04;-5.90;99.90
8172;DHT22;4127;47.908;10.850;2022-12-18T05:06:52;-6.00;99.90
8172;DHT22;4127;47.908;10.850;2022-12-18T05:09:45;-6.10;99.90
8172;DHT22;4127;47.908;10.850;2022-12-18T05:12:11;-6.00;99.90
8172;DHT22;4127;47.908;10.850;2022-12-18T05:14:40;-5.80;99.90
8172;DHT22;4127;47.908;10.850;2022-12-18T05:17:13;-5.70;99.90
8172;DHT22;4127;47.908;10.850;2022-12-18T05:19:42;-5.70;99.90
8172;DHT22;4127;47.908;10.850;2022-12-18T05:22:12;-5.60;99.90
8172;DHT22;4127;47.908;10.850;2022-12-18T05:24:39;-5.40;99.90
8172;DHT22;4127;47.908;10.850;2022-12-18T05:27:06;-5.40;99.90
8172;DHT22;4127;47.908;10.850;2022-12-18T05:29:33;-5.40;99.90
8172;DHT22;4127;47.908;10.850;2022-12-18T05:32:00;-5.20;99.90
8172;DHT22;4127;47.908;10.850;2022-12-18T05:34:32;-5.40;99.90
8172;DHT22;4127;47.908;10.850;2022-12-18T05:37:02;-5.30;99.90
8172;DHT22;4127;47.908;10.850;2022-12-18T05:39:29;-5.30;99.90
8172;DHT22;4127;47.908;10.850;2022-12-18T05:41:56;-5.30;99.90
8172;DHT22;4127;47.908;10.850;2022-12-18T05:44:23;-5.30;99.90
8172;DHT22;4127;47.908;10.850;2022-12-18T05:46:54;-5.30;99.90
8172;DHT22;4127;47.908;10.850;2022-12-18T05:49:24;-5.20;99.90
8172;DHT22;4127;47.908;10.850;2022-12-18T05:51:54;-5.00;99.90
8172;DHT22;4127;47.908;10.850;2022-12-18T05:54:21;-5.00;99.90
8172;DHT22;4127;47.908;10.850;2022-12-18T05:56:48;-4.90;99.90
8172;DHT22;4127;47.908;10.850;2022-12-18T05:59:15;-5.00;99.90
8172;DHT22;4127;47.908;10.850;2022-12-18T06:01:45;-5.20;99.90
8172;DHT22;4127;47.908;10.850;2022-12-18T06:04:12;-5.40;99.90
8172;DHT22;4127;47.908;10.850;2022-12-18T06:06:40;-5.40;99.90
8172;DHT22;4127;47.908;10.850;2022-12-18T06:09:07;-5.40;99.90
8172;DHT22;4127;47.908;10.850;2022-12-18T06:11:37;-5.20;99.90
8172;DHT22;4127;47.908;10.850;2022-12-18T06:14:05;-5.20;99.90
8172;DHT22;4127;47.908;10.850;2022-12-18T06:16:34;-5.40;99.90
8172;DHT22;4127;47.908;10.850;2022-12-18T06:19:04;-5.30;99.90
8172;DHT22;4127;47.908;10.850;2022-12-18T06:21:32;-5.30;99.90
8172;DHT22;4127;47.908;10.850;2022-12-18T06:24:00;-5.40;99.90
8172;DHT22;4127;47.908;10.850;2022-12-18T06:26:27;-5.70;99.90
8172;DHT22;4127;47.908;10.850;2022-12-18T06:28:54;-5.80;99.90
8172;DHT22;4127;47.908;10.850;2022-12-18T06:31:21;-5.80;99.90
8172;DHT22;4127;47.908;10.850;2022-12-18T06:33:56;-5.70;99.90
8172;DHT22;4127;47.908;10.850;2022-12-18T06:36:30;-5.40;99.90
8172;DHT22;4127;47.908;10.850;2022-12-18T06:38:58;-5.50;99.90
8172;DHT22;4127;47.908;10.850;2022-12-18T06:41:31;-5.60;99.90
8172;DHT22;4127;47.908;10.850;2022-12-18T06:44:03;-5.70;99.90
8172;DHT22;4127;47.908;10.850;2022-12-18T06:46:33;-5.80;99.90
8172;DHT22;4127;47.908;10.850;2022-12-18T06:49:17;-6.00;99.90
8172;DHT22;4127;47.908;10.850;2022-12-18T06:51:47;-6.00;99.90
8172;DHT22;4127;47.908;10.850;2022-12-18T06:54:43;-6.00;99.90
8172;DHT22;4127;47.908;10.850;2022-12-18T06:57:10;-5.70;99.90
8172;DHT22;4127;47.908;10.850;2022-12-18T07:00:06;-5.70;99.90
8172;DHT22;4127;47.908;10.850;2022-12-18T07:02:50;-5.90;99.90
8172;DHT22;4127;47.908;10.850;2022-12-18T07:05:24;-5.80;99.90
8172;DHT22;4127;47.908;10.850;2022-12-18T07:08:32;-5.70;99.90
8172;DHT22;4127;47.908;10.850;2022-12-18T07:11:03;-5.50;99.90
8172;DHT22;4127;47.908;10.850;2022-12-18T07:13:30;-5.40;99.90
8172;DHT22;4127;47.908;10.850;2022-12-18T07:16:09;-5.30;99.90
8172;DHT22;4127;47.908;10.850;2022-12-18T07:18:50;-4.90;99.90
8172;DHT22;4127;47.908;10.850;2022-12-18T07:21:21;-5.40;99.90
8172;DHT22;4127;47.908;10.850;2022-12-18T07:23:48;-5.20;99.90
8172;DHT22;4127;47.908;10.850;2022-12-18T07:26:20;-5.00;99.90
8172;DHT22;4127;47.908;10.850;2022-12-18T07:28:47;-5.20;99.90
8172;DHT22;4127;47.908;10.850;2022-12-18T07:31:26;-5.50;99.90
8172;DHT22;4127;47.908;10.850;2022-12-18T07:33:59;-5.70;99.90
8172;DHT22;4127;47.908;10.850;2022-12-18T07:36:29;-5.80;99.90
8172;DHT22;4127;47.908;10.850;2022-12-18T07:38:56;-5.60;99.90
8172;DHT22;4127;47.908;10.850;2022-12-18T07:41:26;-5.40;99.90
8172;DHT22;4127;47.908;10.850;2022-12-18T07:43:54;-5.30;99.90
8172;DHT22;4127;47.908;10.850;2022-12-18T07:46:32;-5.30;99.90
8172;DHT22;4127;47.908;10.850;2022-12-18T07:49:21;-5.30;99.90
8172;DHT22;4127;47.908;10.850;2022-12-18T07:51:57;-5.50;99.90
8172;DHT22;4127;47.908;10.850;2022-12-18T07:54:29;-5.30;99.90
8172;DHT22;4127;47.908;10.850;2022-12-18T07:56:57;-5.30;99.90
8172;DHT22;4127;47.908;10.850;2022-12-18T07:59:24;-5.30;99.90
8172;DHT22;4127;47.908;10.850;2022-12-18T08:01:53;-5.30;99.90
8172;DHT22;4127;47.908;10.850;2022-12-18T08:04:20;-5.20;99.90
8172;DHT22;4127;47.908;10.850;2022-12-18T08:06:47;-5.30;99.90
8172;DHT22;4127;47.908;10.850;2022-12-18T08:09:14;-5.40;99.90
8172;DHT22;4127;47.908;10.850;2022-12-18T08:11:41;-5.50;99.90
8172;DHT22;4127;47.908;10.850;2022-12-18T08:14:32;-5.60;99.90
8172;DHT22;4127;47.908;10.850;2022-12-18T08:17:00;-5.70;99.90
8172;DHT22;4127;47.908;10.850;2022-12-18T08:19:42;-6.00;99.90
8172;DHT22;4127;47.908;10.850;2022-12-18T08:22:11;-5.80;99.90
8172;DHT22;4127;47.908;10.850;2022-12-18T08:24:38;-5.70;99.90
8172;DHT22;4127;47.908;10.850;2022-12-18T08:27:12;-5.60;99.90
8172;DHT22;4127;47.908;10.850;2022-12-18T08:29:56;-5.50;99.90
8172;DHT22;4127;47.908;10.850;2022-12-18T08:32:39;-5.20;99.90
8172;DHT22;4127;47.908;10.850;2022-12-18T08:35:06;-5.00;99.90
8172;DHT22;4127;47.908;10.850;2022-12-18T08:37:35;-5.00;99.90
8172;DHT22;4127;47.908;10.850;2022-12-18T08:40:10;-5.30;99.90
8172;DHT22;4127;47.908;10.850;2022-12-18T08:42:43;-5.80;99.90
8172;DHT22;4127;47.908;10.850;2022-12-18T08:45:34;-5.70;99.90
8172;DHT22;4127;47.908;10.850;2022-12-18T08:48:36;-5.80;99.90
8172;DHT22;4127;47.908;10.850;2022-12-18T08:51:16;-5.30;99.90
8172;DHT22;4127;47.908;10.850;2022-12-18T08:53:49;-5.20;99.90
8172;DHT22;4127;47.908;10.850;2022-12-18T08:56:21;-5.10;99.90
8172;DHT22;4127;47.908;10.850;2022-12-18T08:59:08;-4.90;99.90
8172;DHT22;4127;47.908;10.850;2022-12-18T09:01:45;-4.80;99.90
8172;DHT22;4127;47.908;10.850;2022-12-18T09:04:31;-4.90;99.90
8172;DHT22;4127;47.908;10.850;2022-12-18T09:07:01;-5.00;99.90
8172;DHT22;4127;47.908;10.850;2022-12-18T09:09:51;-5.40;99.90
8172;DHT22;4127;47.908;10.850;2022-12-18T09:12:25;-5.80;99.90
8172;DHT22;4127;47.908;10.850;2022-12-18T09:15:22;-6.20;99.90
8172;DHT22;4127;47.908;10.850;2022-12-18T09:17:56;-6.20;99.90
8172;DHT22;4127;47.908;10.850;2022-12-18T09:20:23;-6.10;99.90
8172;DHT22;4127;47.908;10.850;2022-12-18T09:22:51;-6.10;99.90
8172;DHT22;4127;47.908;10.850;2022-12-18T09:25:20;-5.70;99.90
8172;DHT22;4127;47.908;10.850;2022-12-18T09:28:18;-5.20;99.90
8172;DHT22;4127;47.908;10.850;2022-12-18T09:31:29;-5.00;99.90
8172;DHT22;4127;47.908;10.850;2022-12-18T09:34:20;-4.80;99.90
8172;DHT22;4127;47.908;10.850;2022-12-18T09:37:25;-4.60;99.90
8172;DHT22;4127;47.908;10.850;2022-12-18T09:40:46;-4.60;99.90
8172;DHT22;4127;47.908;10.850;2022-12-18T09:43:42;-4.60;99.90
8172;DHT22;4127;47.908;10.850;2022-12-18T09:46:29;-4.60;99.90
8172;DHT22;4127;47.908;10.850;2022-12-18T09:49:01;-4.50;99.90
8172;DHT22;4127;47.908;10.850;2022-12-18T09:51:50;-4.30;99.90
8172;DHT22;4127;47.908;10.850;2022-12-18T10:06:40;-3.90;99.90
8172;DHT22;4127;47.908;10.850;2022-12-18T10:32:24;-4.20;99.90
8172;DHT22;4127;47.908;10.850;2022-12-18T10:34:57;-4.30;99.90
8172;DHT22;4127;47.908;10.850;2022-12-18T10:37:30;-4.10;99.90
8172;DHT22;4127;47.908;10.850;2022-12-18T10:47:47;-3.50;99.90
8172;DHT22;4127;47.908;10.850;2022-12-18T10:50:56;-3.90;99.90
8172;DHT22;4127;47.908;10.850;2022-12-18T10:54:32;-4.90;99.90
8172;DHT22;4127;47.908;10.850;2022-12-18T10:58:13;-4.90;99.90
8172;DHT22;4127;47.908;10.850;2022-12-18T11:01:57;-4.80;99.90
8172;DHT22;4127;47.908;10.850;2022-12-18T11:04:31;-5.00;99.90
8172;DHT22;4127;47.908;10.850;2022-12-18T11:07:06;-4.90;99.90
8172;DHT22;4127;47.908;10.850;2022-12-18T11:14:15;-4.60;99.90
8172;DHT22;4127;47.908;10.850;2022-12-18T11:17:00;-4.80;99.90
8172;DHT22;4127;47.908;10.850;2022-12-18T11:20:06;-5.10;99.90
8172;DHT22;4127;47.908;10.850;2022-12-18T11:26:53;-4.50;99.90
8172;DHT22;4127;47.908;10.850;2022-12-18T11:29:37;-4.60;99.90
8172;DHT22;4127;47.908;10.850;2022-12-18T11:32:34;-4.60;99.90
8172;DHT22;4127;47.908;10.850;2022-12-18T11:35:38;-4.10;99.90
8172;DHT22;4127;47.908;10.850;2022-12-18T11:54:30;-4.40;99.90
8172;DHT22;4127;47.908;10.850;2022-12-18T12:00:07;-5.30;99.90
8172;DHT22;4127;47.908;10.850;2022-12-18T12:03:06;-5.10;99.90
8172;DHT22;4127;47.908;10.850;2022-12-18T12:06:15;-4.90;99.90
8172;DHT22;4127;47.908;10.850;2022-12-18T12:16:25;-4.90;99.90
8172;DHT22;4127;47.908;10.850;2022-12-18T12:26:45;-3.50;99.90
8172;DHT22;4127;47.908;10.850;2022-12-18T12:30:16;-4.30;99.90
8172;DHT22;4127;47.908;10.850;2022-12-18T12:39:40;-4.80;99.90
8172;DHT22;4127;47.908;10.850;2022-12-18T12:42:35;-4.50;99.90
8172;DHT22;4127;47.908;10.850;2022-12-18T12:46:14;-4.60;99.90
8172;DHT22;4127;47.908;10.850;2022-12-18T12:49:59;-4.70;99.90
8172;DHT22;4127;47.908;10.850;2022-12-18T12:52:50;-4.90;99.90
8172;DHT22;4127;47.908;10.850;2022-12-18T12:55:28;-4.90;99.90
8172;DHT22;4127;47.908;10.850;2022-12-18T13:09:11;-5.10;99.90
8172;DHT22;4127;47.908;10.850;2022-12-18T13:18:51;-4.40;99.90
8172;DHT22;4127;47.908;10.850;2022-12-18T13:21:32;-4.60;99.90
8172;DHT22;4127;47.908;10.850;2022-12-18T13:24:27;-4.80;99.90
8172;DHT22;4127;47.908;10.850;2022-12-18T13:32:01;-5.00;99.90
8172;DHT22;4127;47.908;10.850;2022-12-18T13:34:43;-5.10;99.90
8172;DHT22;4127;47.908;10.850;2022-12-18T13:44:31;-5.00;99.90
8172;DHT22;4127;47.908;10.850;2022-12-18T13:47:27;-5.20;99.90
8172;DHT22;4127;47.908;10.850;2022-12-18T13:49:57;-5.30;99.90
8172;DHT22;4127;47.908;10.850;2022-12-18T13:52:37;-5.30;99.90
8172;DHT22;4127;47.908;10.850;2022-12-18T13:56:09;-4.90;99.90
8172;DHT22;4127;47.908;10.850;2022-12-18T13:58:44;-4.50;99.90
8172;DHT22;4127;47.908;10.850;2022-12-18T14:02:12;-4.80;99.90
8172;DHT22;4127;47.908;10.850;2022-12-18T14:04:44;-4.70;99.90
8172;DHT22;4127;47.908;10.850;2022-12-18T14:11:26;-4.20;99.90
8172;DHT22;4127;47.908;10.850;2022-12-18T14:13:57;-4.80;99.90
8172;DHT22;4127;47.908;10.850;2022-12-18T14:16:43;-4.80;99.90
8172;DHT22;4127;47.908;10.850;2022-12-18T14:19:16;-4.40;99.90
8172;DHT22;4127;47.908;10.850;2022-12-18T14:25:46;-4.80;99.90
8172;DHT22;4127;47.908;10.850;2022-12-18T14:31:25;-4.60;99.90
8172;DHT22;4127;47.908;10.850;2022-12-18T14:40:55;-4.30;99.90
8172;DHT22;4127;47.908;10.850;2022-12-18T14:43:27;-4.20;99.90
8172;DHT22;4127;47.908;10.850;2022-12-18T14:45:58;-4.00;99.90
8172;DHT22;4127;47.908;10.850;2022-12-18T14:55:02;-4.00;99.90
8172;DHT22;4127;47.908;10.850;2022-12-18T14:57:35;-4.00;99.90
8172;DHT22;4127;47.908;10.850;2022-12-18T15:00:20;-4.20;99.90
8172;DHT22;4127;47.908;10.850;2022-12-18T15:19:26;-5.00;99.90
8172;DHT22;4127;47.908;10.850;2022-12-18T15:25:36;-4.50;99.90
8172;DHT22;4127;47.908;10.850;2022-12-18T15:28:25;-4.30;99.90
8172;DHT22;4127;47.908;10.850;2022-12-18T15:32:42;-4.50;99.90
8172;DHT22;4127;47.908;10.850;2022-12-18T15:37:43;-4.70;99.90
8172;DHT22;4127;47.908;10.850;2022-12-18T15:40:16;-4.80;99.90
8172;DHT22;4127;47.908;10.850;2022-12-18T15:43:18;-4.80;99.90
8172;DHT22;4127;47.908;10.850;2022-12-18T15:47:02;-4.80;99.90
8172;DHT22;4127;47.908;10.850;2022-12-18T15:49:29;-4.70;99.90
8172;DHT22;4127;47.908;10.850;2022-12-18T15:52:19;-4.70;99.90
8172;DHT22;4127;47.908;10.850;2022-12-18T15:54:55;-4.60;99.90
8172;DHT22;4127;47.908;10.850;2022-12-18T15:58:16;-4.80;99.90
8172;DHT22;4127;47.908;10.850;2022-12-18T16:01:25;-4.70;99.90
8172;DHT22;4127;47.908;10.850;2022-12-18T16:03:58;-4.60;99.90
8172;DHT22;4127;47.908;10.850;2022-12-18T16:06:40;-4.60;99.90
8172;DHT22;4127;47.908;10.850;2022-12-18T16:09:56;-5.10;99.90
8172;DHT22;4127;47.908;10.850;2022-12-18T16:13:50;-5.50;99.90
8172;DHT22;4127;47.908;10.850;2022-12-18T16:16:22;-5.70;99.90
8172;DHT22;4127;47.908;10.850;2022-12-18T16:19:16;-5.80;99.90
8172;DHT22;4127;47.908;10.850;2022-12-18T16:21:57;-5.70;99.90
8172;DHT22;4127;47.908;10.850;2022-12-18T16:24:38;-6.10;99.90
8172;DHT22;4127;47.908;10.850;2022-12-18T16:27:32;-6.40;99.90
8172;DHT22;4127;47.908;10.850;2022-12-18T16:30:25;-6.60;99.90
8172;DHT22;4127;47.908;10.850;2022-12-18T16:33:26;-6.70;99.90
8172;DHT22;4127;47.908;10.850;2022-12-18T16:35:53;-6.60;99.90
8172;DHT22;4127;47.908;10.850;2022-12-18T16:38:20;-6.70;99.90
8172;DHT22;4127;47.908;10.850;2022-12-18T16:40:47;-6.80;99.90
8172;DHT22;4127;47.908;10.850;2022-12-18T16:43:55;-6.60;99.90
8172;DHT22;4127;47.908;10.850;2022-12-18T16:46:55;-6.30;99.90
8172;DHT22;4127;47.908;10.850;2022-12-18T16:49:28;-6.00;99.90
8172;DHT22;4127;47.908;10.850;2022-12-18T16:51:55;-5.80;99.90
8172;DHT22;4127;47.908;10.850;2022-12-18T16:54:22;-5.80;99.90
8172;DHT22;4127;47.908;10.850;2022-12-18T16:57:24;-5.70;99.90
8172;DHT22;4127;47.908;10.850;2022-12-18T17:00:39;-5.70;99.90
8172;DHT22;4127;47.908;10.850;2022-12-18T17:03:06;-5.70;99.90
8172;DHT22;4127;47.908;10.850;2022-12-18T17:05:33;-6.00;99.90
8172;DHT22;4127;47.908;10.850;2022-12-18T17:08:01;-6.40;99.90
8172;DHT22;4127;47.908;10.850;2022-12-18T17:11:24;-6.40;99.90
8172;DHT22;4127;47.908;10.850;2022-12-18T17:14:38;-6.20;99.90
8172;DHT22;4127;47.908;10.850;2022-12-18T17:17:06;-6.10;99.90
8172;DHT22;4127;47.908;10.850;2022-12-18T17:19:47;-6.00;99.90
8172;DHT22;4127;47.908;10.850;2022-12-18T17:22:22;-6.10;99.90
8172;DHT22;4127;47.908;10.850;2022-12-18T17:25:29;-6.50;99.90
8172;DHT22;4127;47.908;10.850;2022-12-18T17:28:59;-6.60;99.90
8172;DHT22;4127;47.908;10.850;2022-12-18T17:31:28;-6.40;99.90
8172;DHT22;4127;47.908;10.850;2022-12-18T17:33:56;-6.30;99.90
8172;DHT22;4127;47.908;10.850;2022-12-18T17:41:00;-6.10;99.90
8172;DHT22;4127;47.908;10.850;2022-12-18T17:43:31;-6.00;99.90
8172;DHT22;4127;47.908;10.850;2022-12-18T17:46:02;-6.30;99.90
8172;DHT22;4127;47.908;10.850;2022-12-18T17:48:39;-6.50;99.90
8172;DHT22;4127;47.908;10.850;2022-12-18T17:51:19;-6.50;99.90
8172;DHT22;4127;47.908;10.850;2022-12-18T17:58:09;-6.80;99.90
8172;DHT22;4127;47.908;10.850;2022-12-18T18:00:38;-7.10;99.90
8172;DHT22;4127;47.908;10.850;2022-12-18T18:03:05;-7.30;99.90
8172;DHT22;4127;47.908;10.850;2022-12-18T18:05:36;-7.30;99.90
8172;DHT22;4127;47.908;10.850;2022-12-18T18:08:03;-7.10;99.90
8172;DHT22;4127;47.908;10.850;2022-12-18T18:20:55;-6.90;99.90
8172;DHT22;4127;47.908;10.850;2022-12-18T18:23:39;-6.80;99.90
8172;DHT22;4127;47.908;10.850;2022-12-18T18:26:41;-6.80;99.90
8172;DHT22;4127;47.908;10.850;2022-12-18T18:33:56;-6.70;99.90
8172;DHT22;4127;47.908;10.850;2022-12-18T18:37:23;-6.70;99.90
8172;DHT22;4127;47.908;10.850;2022-12-18T18:44:07;-6.60;99.90
8172;DHT22;4127;47.908;10.850;2022-12-18T18:47:24;-6.60;99.90
8172;DHT22;4127;47.908;10.850;2022-12-18T18:53:29;-6.70;99.90
8172;DHT22;4127;47.908;10.850;2022-12-18T18:56:17;-7.10;99.90
8172;DHT22;4127;47.908;10.850;2022-12-18T18:59:25;-7.00;99.90
8172;DHT22;4127;47.908;10.850;2022-12-18T19:01:58;-7.00;99.90
8172;DHT22;4127;47.908;10.850;2022-12-18T19:04:31;-6.90;99.90
8172;DHT22;4127;47.908;10.850;2022-12-18T19:07:28;-6.60;99.90
8172;DHT22;4127;47.908;10.850;2022-12-18T19:10:00;-6.50;99.90
8172;DHT22;4127;47.908;10.850;2022-12-18T19:12:39;-6.60;99.90
8172;DHT22;4127;47.908;10.850;2022-12-18T19:15:41;-6.60;99.90
8172;DHT22;4127;47.908;10.850;2022-12-18T19:18:16;-6.50;99.90
8172;DHT22;4127;47.908;10.850;2022-12-18T19:20:54;-6.20;99.90
8172;DHT22;4127;47.908;10.850;2022-12-18T19:23:21;-6.30;99.90
8172;DHT22;4127;47.908;10.850;2022-12-18T19:25:50;-6.20;99.90
8172;DHT22;4127;47.908;10.850;2022-12-18T19:28:38;-6.20;99.90
8172;DHT22;4127;47.908;10.850;2022-12-18T19:31:22;-6.20;99.90
8172;DHT22;4127;47.908;10.850;2022-12-18T19:33:54;-6.30;99.90
8172;DHT22;4127;47.908;10.850;2022-12-18T19:36:33;-6.70;99.90
8172;DHT22;4127;47.908;10.850;2022-12-18T19:39:01;-7.00;99.90
8172;DHT22;4127;47.908;10.850;2022-12-18T19:41:28;-7.10;99.90
8172;DHT22;4127;47.908;10.850;2022-12-18T19:44:24;-7.10;99.90
8172;DHT22;4127;47.908;10.850;2022-12-18T19:47:01;-7.20;99.90
8172;DHT22;4127;47.908;10.850;2022-12-18T19:49:28;-7.10;99.90
8172;DHT22;4127;47.908;10.850;2022-12-18T19:51:57;-7.10;99.90
8172;DHT22;4127;47.908;10.850;2022-12-18T19:54:53;-6.90;99.90
8172;DHT22;4127;47.908;10.850;2022-12-18T19:58:35;-6.80;99.90
8172;DHT22;4127;47.908;10.850;2022-12-18T20:01:03;-6.80;99.90
8172;DHT22;4127;47.908;10.850;2022-12-18T20:03:38;-7.00;99.90
8172;DHT22;4127;47.908;10.850;2022-12-18T20:06:11;-6.70;99.90
8172;DHT22;4127;47.908;10.850;2022-12-18T20:12:40;-6.30;99.90
8172;DHT22;4127;47.908;10.850;2022-12-18T20:18:23;-6.10;99.90
8172;DHT22;4127;47.908;10.850;2022-12-18T20:25:29;-6.40;99.90
8172;DHT22;4127;47.908;10.850;2022-12-18T20:27:57;-6.20;99.90
8172;DHT22;4127;47.908;10.850;2022-12-18T20:30:53;-6.00;99.90
8172;DHT22;4127;47.908;10.850;2022-12-18T20:33:24;-5.90;99.90
8172;DHT22;4127;47.908;10.850;2022-12-18T20:39:48;-5.60;99.90
8172;DHT22;4127;47.908;10.850;2022-12-18T20:42:17;-5.80;99.90
8172;DHT22;4127;47.908;10.850;2022-12-18T20:44:44;-6.00;99.90
8172;DHT22;4127;47.908;10.850;2022-12-18T20:47:11;-5.90;99.90
8172;DHT22;4127;47.908;10.850;2022-12-18T20:50:07;-5.80;99.90
8172;DHT22;4127;47.908;10.850;2022-12-18T20:53:33;-5.80;99.90
8172;DHT22;4127;47.908;10.850;2022-12-18T20:56:28;-5.80;99.90
8172;DHT22;4127;47.908;10.850;2022-12-18T20:59:17;-5.70;99.90
8172;DHT22;4127;47.908;10.850;2022-12-18T21:02:44;-5.60;99.90
8172;DHT22;4127;47.908;10.850;2022-12-18T21:06:10;-5.50;99.90
8172;DHT22;4127;47.908;10.850;2022-12-18T21:08:46;-5.60;99.90
8172;DHT22;4127;47.908;10.850;2022-12-18T21:14:27;-5.40;99.90
8172;DHT22;4127;47.908;10.850;2022-12-18T21:17:36;-5.30;99.90
8172;DHT22;4127;47.908;10.850;2022-12-18T21:20:46;-5.20;99.90
8172;DHT22;4127;47.908;10.850;2022-12-18T21:23:16;-5.20;99.90
8172;DHT22;4127;47.908;10.850;2022-12-18T21:25:49;-5.20;99.90
8172;DHT22;4127;47.908;10.850;2022-12-18T21:28:47;-5.20;99.90
8172;DHT22;4127;47.908;10.850;2022-12-18T21:32:57;-5.20;99.90
8172;DHT22;4127;47.908;10.850;2022-12-18T21:35:56;-5.10;99.90
8172;DHT22;4127;47.908;10.850;2022-12-18T21:38:28;-5.10;99.90
8172;DHT22;4127;47.908;10.850;2022-12-18T21:40:58;-5.20;99.90
8172;DHT22;4127;47.908;10.850;2022-12-18T21:47:37;-5.80;99.90
8172;DHT22;4127;47.908;10.850;2022-12-18T21:50:08;-5.70;99.90
8172;DHT22;4127;47.908;10.850;2022-12-18T21:52:47;-5.60;99.90
8172;DHT22;4127;47.908;10.850;2022-12-18T21:55:28;-5.50;99.90
8172;DHT22;4127;47.908;10.850;2022-12-18T21:58:24;-5.40;99.90
8172;DHT22;4127;47.908;10.850;2022-12-18T22:01:43;-5.30;99.90
8172;DHT22;4127;47.908;10.850;2022-12-18T22:04:17;-5.10;99.90
8172;DHT22;4127;47.908;10.850;2022-12-18T22:06:48;-5.00;99.90
8172;DHT22;4127;47.908;10.850;2022-12-18T22:13:36;-5.20;99.90
8172;DHT22;4127;47.908;10.850;2022-12-18T22:16:08;-5.30;99.90
8172;DHT22;4127;47.908;10.850;2022-12-18T22:18:52;-5.30;99.90
8172;DHT22;4127;47.908;10.850;2022-12-18T22:21:33;-5.10;99.90
8172;DHT22;4127;47.908;10.850;2022-12-18T22:24:29;-5.00;99.90
8172;DHT22;4127;47.908;10.850;2022-12-18T22:28:20;-4.90;99.90
8172;DHT22;4127;47.908;10.850;2022-12-18T22:31:16;-5.20;99.90
8172;DHT22;4127;47.908;10.850;2022-12-18T22:34:23;-5.10;99.90
8172;DHT22;4127;47.908;10.850;2022-12-18T22:36:56;-5.00;99.90
8172;DHT22;4127;47.908;10.850;2022-12-18T22:40:00;-5.10;99.90
8172;DHT22;4127;47.908;10.850;2022-12-18T22:42:58;-5.10;99.90
8172;DHT22;4127;47.908;10.850;2022-12-18T22:46:35;-5.10;99.90
8172;DHT22;4127;47.908;10.850;2022-12-18T22:49:11;-5.10;99.90
8172;DHT22;4127;47.908;10.850;2022-12-18T22:51:55;-4.90;99.90
8172;DHT22;4127;47.908;10.850;2022-12-18T22:54:22;-4.80;99.90
8172;DHT22;4127;47.908;10.850;2022-12-18T23:01:13;-4.60;99.90
8172;DHT22;4127;47.908;10.850;2022-12-18T23:04:15;-4.50;99.90
8172;DHT22;4127;47.908;10.850;2022-12-18T23:07:16;-4.50;99.90
8172;DHT22;4127;47.908;10.850;2022-12-18T23:18:21;-4.60;99.90
8172;DHT22;4127;47.908;10.850;2022-12-18T23:20:55;-4.60;99.90
8172;DHT22;4127;47.908;10.850;2022-12-18T23:30:36;-4.40;99.90
8172;DHT22;4127;47.908;10.850;2022-12-18T23:33:21;-4.50;99.90
8172;DHT22;4127;47.908;10.850;2022-12-18T23:36:37;-4.40;99.90
8172;DHT22;4127;47.908;10.850;2022-12-18T23:43:34;-4.20;99.90
